Time;durP1;ratioP1;P1;durP2;ratioP2;P2;SDS_P1;SDS_P2;PMS_P1;PMS_P2;Temp;Humidity;BMP_temperature;BMP_pressure;BME280_temperature;BME280_humidity;BME280_pressure;Samples;Min_cycle;Max_cycle;Signal;HPM_P1;HPM_P2
2021/05/01 00:06:01;;;;;;;51.88;30.58;;;;;;;5.33;100.00;100061.53;20908708;28;20063;-70
2021/05/01 00:16:04;;;;;;;60.13;33.40;;;;;;;5.27;100.00;100066.97;20908625;28;20041;-70
2021/05/01 00:26:05;;;;;;;51.88;31.48;;;;;;;5.21;100.00;100064.59;20923718;28;20045;-69
2021/05/01 00:36:06;;;;;;;56.50;31.83;;;;;;;5.03;100.00;100053.97;20907261;28;20492;-70
2021/05/01 00:46:09;;;;;;;52.05;31.60;;;;;;;4.94;100.00;100045.72;20906696;28;20472;-69
2021/05/01 00:56:11;;;;;;;51.17;29.90;;;;;;;4.84;100.00;100047.78;20900176;28;20056;-70
2021/05/01 01:06:13;;;;;;;52.85;31.08;;;;;;;4.71;100.00;100036.19;20903131;28;20447;-69
2021/05/01 01:16:15;;;;;;;52.85;29.90;;;;;;;4.57;100.00;100043.63;20897355;28;20106;-70
2021/05/01 01:26:17;;;;;;;49.65;29.80;;;;;;;4.45;100.00;100046.63;20902941;28;20102;-70
2021/05/01 01:36:18;;;;;;;49.08;27.95;;;;;;;4.27;100.00;100045.50;20883777;28;20041;-69
2021/05/01 01:46:19;;;;;;;53.13;30.02;;;;;;;4.26;100.00;100047.28;20902098;28;20059;-69
2021/05/01 01:56:21;;;;;;;58.53;32.65;;;;;;;4.15;100.00;100046.78;20901856;28;20053;-70
2021/05/01 02:06:23;;;;;;;56.75;31.50;;;;;;;4.06;100.00;100039.34;20900859;28;20040;-70
2021/05/01 02:16:24;;;;;;;59.67;31.67;;;;;;;3.97;100.00;100031.84;20900439;28;20053;-71
2021/05/01 02:26:26;;;;;;;60.42;32.70;;;;;;;3.74;100.00;100022.25;20918556;28;20115;-68
2021/05/01 02:36:27;;;;;;;56.28;31.10;;;;;;;3.47;100.00;100024.88;20915464;28;20045;-68
2021/05/01 02:46:29;;;;;;;62.08;33.42;;;;;;;3.40;100.00;100004.38;20915226;28;20052;-68
2021/05/01 02:56:29;;;;;;;66.03;34.85;;;;;;;3.36;100.00;99991.56;20907600;28;20459;-67
2021/05/01 03:06:31;;;;;;;69.93;35.95;;;;;;;3.24;100.00;99991.97;20914045;28;20048;-68
2021/05/01 03:16:32;;;;;;;69.07;35.90;;;;;;;3.08;100.00;99985.56;20904103;28;20053;-69
2021/05/01 03:26:34;;;;;;;69.55;36.08;;;;;;;2.94;100.00;99975.66;20905772;28;20497;-68
2021/05/01 03:36:35;;;;;;;68.50;36.67;;;;;;;3.03;100.00;99988.31;20910070;28;20049;-69
2021/05/01 03:46:36;;;;;;;66.82;33.97;;;;;;;2.97;100.00;99991.91;20911122;28;20107;-68
2021/05/01 03:56:38;;;;;;;64.45;33.55;;;;;;;2.88;100.00;99988.75;20910694;28;20475;-69
2021/05/01 04:06:39;;;;;;;64.93;32.92;;;;;;;2.68;100.00;99985.91;20908326;28;20041;-69
2021/05/01 04:16:40;;;;;;;64.35;33.40;;;;;;;2.58;100.00;99975.84;20909029;28;20041;-69
2021/05/01 04:26:42;;;;;;;64.93;34.10;;;;;;;2.71;100.00;99981.50;20910163;28;20493;-69
2021/05/01 04:36:44;;;;;;;61.95;32.33;;;;;;;2.85;100.00;99960.41;20906637;28;20110;-68
2021/05/01 04:46:49;;;;;;;63.85;32.17;;;;;;;2.93;100.00;99966.22;20904230;28;20041;-70
2021/05/01 04:56:50;;;;;;;65.25;35.35;;;;;;;3.12;100.00;99971.66;20903858;28;20048;-70
2021/05/01 05:06:52;;;;;;;61.45;34.17;;;;;;;3.37;100.00;99988.94;20893315;28;20033;-70
2021/05/01 05:16:53;;;;;;;59.17;32.72;;;;;;;3.68;100.00;99988.81;20904139;28;20041;-70
2021/05/01 05:26:54;;;;;;;75.20;42.60;;;;;;;4.40;100.00;99994.97;20902548;28;20044;-71
2021/05/01 05:36:55;;;;;;;65.53;35.83;;;;;;;4.77;100.00;99996.25;20902762;28;20071;-69
2021/05/01 05:46:57;;;;;;;60.45;34.28;;;;;;;4.90;100.00;99995.72;20901557;28;20044;-70
2021/05/01 05:56:58;;;;;;;60.30;34.33;;;;;;;5.59;99.65;99975.69;20892962;28;20047;-70
2021/05/01 06:07:10;;;;;;;47.55;28.13;;;;;;;5.94;97.12;99977.69;20900989;28;20040;-69
2021/05/01 06:17:16;;;;;;;45.45;28.27;;;;;;;6.36;96.22;99982.81;20893625;28;20064;-70
2021/05/01 06:27:18;;;;;;;50.55;31.20;;;;;;;6.55;96.93;99975.06;20900580;28;20045;-70
2021/05/01 06:37:23;;;;;;;50.75;31.00;;;;;;;6.79;97.40;99986.13;20903078;28;20103;-69
2021/05/01 06:47:27;;;;;;;48.80;30.30;;;;;;;7.39;94.97;99990.22;20897679;28;20045;-70
2021/05/01 06:57:29;;;;;;;51.93;32.33;;;;;;;7.62;94.32;99989.94;20923947;22;20045;-71
2021/05/01 07:07:32;;;;;;;50.17;30.27;;;;;;;8.00;92.74;99985.47;21048353;28;20059;-71
2021/05/01 07:17:34;;;;;;;54.05;33.97;;;;;;;8.24;92.71;99978.16;21172374;27;20486;-72
2021/05/01 07:27:45;;;;;;;50.40;31.73;;;;;;;8.51;89.37;99994.19;21145709;28;20050;-69
2021/05/01 07:37:51;;;;;;;50.38;31.90;;;;;;;8.78;87.89;99997.09;21152305;28;20039;-69
2021/05/01 07:47:57;;;;;;;57.30;36.72;;;;;;;8.80;86.40;99980.44;21119989;28;20044;-71
2021/05/01 07:57:58;;;;;;;52.20;33.17;;;;;;;8.98;83.06;99981.22;21150238;28;20541;-70
2021/05/01 08:07:59;;;;;;;54.50;33.58;;;;;;;9.26;81.23;99973.53;21126294;28;20401;-71
2021/05/01 08:18:02;;;;;;;52.05;33.40;;;;;;;9.59;80.06;99965.59;21142535;28;20043;-70
2021/05/01 08:28:03;;;;;;;53.33;33.65;;;;;;;9.17;79.22;99979.28;21141414;28;20058;-70
2021/05/01 08:38:05;;;;;;;50.45;32.17;;;;;;;9.62;80.77;99994.16;21154871;28;20040;-69
2021/05/01 08:48:06;;;;;;;44.65;28.55;;;;;;;9.81;76.56;99997.38;21158987;27;20453;-70
2021/05/01 08:58:10;;;;;;;49.35;31.95;;;;;;;9.69;78.28;99976.34;21155139;28;20048;-70
2021/05/01 09:08:15;;;;;;;48.85;32.22;;;;;;;9.39;80.54;99976.31;21155452;28;20036;-69
2021/05/01 09:18:17;;;;;;;46.75;30.08;;;;;;;9.79;76.64;99982.75;21163164;27;20269;-70
2021/05/01 09:28:18;;;;;;;42.03;28.90;;;;;;;10.23;77.18;99973.16;21153861;28;20044;-69
2021/05/01 09:38:20;;;;;;;41.25;27.33;;;;;;;10.57;73.66;99971.09;21152238;28;20047;-69
2021/05/01 09:48:21;;;;;;;42.03;28.58;;;;;;;10.58;72.73;99968.41;21141990;27;20479;-69
2021/05/01 09:58:26;;;;;;;42.03;26.92;;;;;;;10.73;69.15;99966.63;21151502;28;20044;-69
2021/05/01 10:08:31;;;;;;;38.50;24.73;;;;;;;10.64;67.83;99964.56;21151713;28;20532;-69
2021/05/01 10:18:32;;;;;;;33.27;21.40;;;;;;;11.02;66.05;99957.78;21147097;28;20035;-70
2021/05/01 10:28:46;;;;;;;34.70;24.10;;;;;;;11.36;63.11;99963.50;21146545;28;20301;-70
2021/05/01 10:39:05;;;;;;;34.45;23.85;;;;;;;11.43;64.13;99949.06;21131706;28;20066;-70
2021/05/01 10:49:08;;;;;;;38.22;26.40;;;;;;;11.25;64.79;99955.50;21136819;28;20043;-69
2021/05/01 10:59:21;;;;;;;42.15;26.00;;;;;;;11.15;64.85;99943.00;21151993;28;20105;-70
2021/05/01 11:09:37;;;;;;;39.08;25.08;;;;;;;12.00;63.39;99939.16;21138906;28;20494;-70
2021/05/01 11:19:46;;;;;;;30.13;20.85;;;;;;;12.09;63.44;99925.41;21151903;27;20043;-70
2021/05/01 11:29:48;;;;;;;29.40;17.95;;;;;;;12.28;61.63;99920.63;21134914;28;20091;-70
2021/05/01 11:39:51;;;;;;;25.40;17.98;;;;;;;12.42;57.87;99922.28;21169524;27;20043;-68
2021/05/01 11:49:55;;;;;;;26.23;17.85;;;;;;;12.75;59.73;99904.13;21143148;27;20500;-69
2021/05/01 11:59:59;;;;;;;24.73;17.60;;;;;;;13.26;54.50;99906.63;21155492;28;20063;-71
2021/05/01 12:10:07;;;;;;;24.20;17.98;;;;;;;13.34;56.50;99891.16;21161153;28;20032;-70
2021/05/01 12:20:12;;;;;;;24.85;18.17;;;;;;;13.11;55.11;99895.44;21166664;27;20055;-70
2021/05/01 12:30:49;;;;;;;26.65;17.75;;;;;;;13.19;58.01;99877.34;21150900;28;20092;-70
2021/05/01 12:41:10;;;;;;;24.92;17.38;;;;;;;13.85;54.13;99864.53;21151314;27;20039;-70
2021/05/01 12:51:22;;;;;;;23.17;16.63;;;;;;;13.83;53.82;99858.53;21129948;28;20040;-70
2021/05/01 13:01:30;;;;;;;25.73;18.23;;;;;;;13.42;55.02;99841.44;21149307;28;20044;-70
2021/05/01 13:11:33;;;;;;;22.25;14.80;;;;;;;13.50;53.95;99841.75;21141586;27;20104;-69
2021/05/01 13:21:52;;;;;;;18.77;13.27;;;;;;;13.82;54.12;99814.75;21147424;28;20052;-71
2021/05/01 13:31:53;;;;;;;23.55;14.93;;;;;;;13.96;53.28;99810.13;21126082;28;20551;-70
2021/05/01 13:42:11;;;;;;;19.77;13.52;;;;;;;13.47;53.83;99802.50;21151829;27;20047;-69
2021/05/01 13:52:23;;;;;;;16.20;12.10;;;;;;;13.09;52.82;99792.22;21149189;28;20043;-70
2021/05/01 14:02:44;;;;;;;22.92;13.23;;;;;;;12.58;53.74;99773.25;21147118;27;20476;-70
2021/05/01 14:12:46;;;;;;;19.75;11.95;;;;;;;13.10;51.87;99778.16;21147839;28;20047;-70
2021/05/01 14:22:49;;;;;;;17.00;11.02;;;;;;;13.46;53.27;99769.28;21134719;28;20040;-71
2021/05/01 14:32:53;;;;;;;18.23;12.05;;;;;;;13.79;53.22;99757.97;21145288;28;20391;-70
2021/05/01 14:42:56;;;;;;;20.08;14.27;;;;;;;13.64;54.14;99760.00;21147456;28;20452;-71
2021/05/01 14:53:15;;;;;;;20.60;14.45;;;;;;;13.63;53.81;99749.59;21151084;28;20047;-71
2021/05/01 15:03:31;;;;;;;18.33;13.20;;;;;;;13.81;53.93;99742.09;21089917;28;20039;-71
2021/05/01 15:13:32;;;;;;;20.13;12.90;;;;;;;13.90;52.33;99751.88;21146501;28;20047;-70
2021/05/01 15:23:43;;;;;;;18.60;13.32;;;;;;;13.94;51.90;99759.41;21148490;28;20059;-71
2021/05/01 15:33:51;;;;;;;17.98;12.85;;;;;;;13.78;50.75;99740.50;21158667;28;20092;-71
2021/05/01 15:44:12;;;;;;;21.48;13.80;;;;;;;13.60;51.11;99724.38;21173569;27;20416;-69
2021/05/01 15:54:13;;;;;;;19.52;14.02;;;;;;;13.62;52.71;99717.19;21158510;28;20047;-69
2021/05/01 16:04:14;;;;;;;19.63;12.70;;;;;;;13.70;54.83;99725.34;21158623;28;20324;-70
2021/05/01 16:14:15;;;;;;;20.52;14.45;;;;;;;13.79;53.25;99717.69;21148304;28;20122;-69
2021/05/01 16:24:17;;;;;;;20.90;13.95;;;;;;;13.41;53.05;99708.31;21153329;28;20486;-69
2021/05/01 16:34:19;;;;;;;19.88;12.98;;;;;;;13.29;54.75;99709.28;21160390;28;20096;-70
2021/05/01 16:44:20;;;;;;;16.80;11.32;;;;;;;13.26;57.09;99704.25;21152980;27;20047;-70
2021/05/01 16:54:22;;;;;;;22.60;16.58;;;;;;;13.06;58.09;99702.25;21159459;28;20055;-70
2021/05/01 17:04:23;;;;;;;15.95;10.75;;;;;;;12.97;59.69;99695.91;21154653;28;20044;-70
2021/05/01 17:14:24;;;;;;;17.73;12.15;;;;;;;12.89;59.57;99694.84;21165059;27;20093;-70
2021/05/01 17:24:28;;;;;;;18.58;13.13;;;;;;;12.68;60.13;99698.09;21129492;28;20048;-70
2021/05/01 17:34:29;;;;;;;17.83;11.50;;;;;;;12.61;62.10;99699.50;21146445;28;20503;-70
2021/05/01 17:44:31;;;;;;;18.08;13.18;;;;;;;12.35;64.46;99703.19;21133904;27;20048;-70
2021/05/01 17:54:33;;;;;;;34.05;20.30;;;;;;;12.18;68.45;99719.31;21141492;28;20097;-70
2021/05/01 18:04:35;;;;;;;26.70;17.77;;;;;;;11.95;70.68;99731.44;21131532;27;20410;-70
2021/05/01 18:14:36;;;;;;;21.13;15.82;;;;;;;11.67;74.29;99735.13;21145062;27;20047;-69
2021/05/01 18:24:37;;;;;;;23.80;16.65;;;;;;;11.52;77.25;99730.94;21164460;28;20039;-70
2021/05/01 18:34:39;;;;;;;27.30;18.70;;;;;;;11.34;78.16;99756.59;21143557;28;20039;-70
2021/05/01 18:44:40;;;;;;;25.88;18.17;;;;;;;11.15;79.88;99750.94;21141994;28;20134;-69
2021/05/01 18:54:42;;;;;;;28.75;18.98;;;;;;;11.10;80.31;99746.00;21147225;28;20040;-69
2021/05/01 19:04:43;;;;;;;29.92;20.52;;;;;;;11.01;83.33;99766.72;21149394;27;20039;-70
2021/05/01 19:14:46;;;;;;;29.88;19.92;;;;;;;10.82;87.29;99785.41;21178517;27;20405;-71
2021/05/01 19:24:48;;;;;;;29.77;19.98;;;;;;;10.64;89.16;99794.47;21168725;27;20044;-69
2021/05/01 19:34:52;;;;;;;29.17;20.00;;;;;;;10.50;92.26;99813.66;21158110;27;20065;-71
2021/05/01 19:44:54;;;;;;;29.13;19.90;;;;;;;10.35;90.94;99821.63;21169690;27;20036;-71
2021/05/01 19:54:55;;;;;;;27.65;19.55;;;;;;;10.31;93.63;99812.31;21148507;27;20158;-71
2021/05/01 20:04:56;;;;;;;28.17;20.15;;;;;;;10.22;95.44;99814.53;21179588;27;20035;-71
2021/05/01 20:14:58;;;;;;;28.27;19.98;;;;;;;10.09;96.17;99803.13;21167785;27;20501;-71
2021/05/01 20:24:59;;;;;;;28.40;19.15;;;;;;;9.99;98.21;99812.47;21156111;27;20534;-70
2021/05/01 20:35:02;;;;;;;29.23;19.55;;;;;;;9.86;97.23;99816.75;21160242;27;20084;-70
2021/05/01 20:45:06;;;;;;;30.27;20.80;;;;;;;9.78;98.84;99821.63;21157901;27;20035;-72
2021/05/01 20:55:08;;;;;;;29.58;20.08;;;;;;;9.68;99.80;99823.09;21152389;28;20055;-71
2021/05/01 21:05:10;;;;;;;33.85;21.40;;;;;;;9.51;99.66;99826.72;21132537;27;20101;-70
2021/05/01 21:15:12;;;;;;;29.50;20.40;;;;;;;9.45;99.18;99820.06;21126626;28;20039;-71
2021/05/01 21:25:14;;;;;;;26.60;18.60;;;;;;;9.42;96.37;99820.25;21116954;28;20051;-70
2021/05/01 21:35:16;;;;;;;27.90;19.23;;;;;;;9.48;98.95;99821.69;21154512;27;20048;-71
2021/05/01 21:45:17;;;;;;;29.52;19.73;;;;;;;9.44;96.91;99839.31;21158597;28;20073;-70
2021/05/01 21:55:19;;;;;;;30.67;20.35;;;;;;;9.60;80.99;99847.06;21158266;28;20113;-70
2021/05/01 22:05:20;;;;;;;32.17;20.00;;;;;;;9.70;79.87;99857.84;21159778;27;20384;-71
2021/05/01 22:15:21;;;;;;;23.20;15.90;;;;;;;9.59;82.46;99865.47;21146281;28;20047;-70
2021/05/01 22:25:33;;;;;;;24.15;15.70;;;;;;;9.36;87.77;99872.84;21151275;28;20473;-71
2021/05/01 22:35:40;;;;;;;20.15;14.60;;;;;;;9.22;82.78;99893.69;21198690;27;20410;-70
2021/05/01 22:45:42;;;;;;;23.15;15.73;;;;;;;9.23;84.99;99899.75;21134578;27;20048;-70
2021/05/01 22:55:45;;;;;;;21.63;13.98;;;;;;;9.24;83.12;99899.69;21080681;28;20097;-69
2021/05/01 23:05:47;;;;;;;22.83;14.77;;;;;;;9.22;85.65;99901.53;21218648;27;20127;-70
2021/05/01 23:15:48;;;;;;;21.13;12.52;;;;;;;9.17;81.33;99906.16;21250276;27;20043;-70
2021/05/01 23:25:52;;;;;;;17.85;11.75;;;;;;;9.11;78.87;99896.06;21231046;27;20440;-70
2021/05/01 23:35:54;;;;;;;17.63;11.40;;;;;;;9.01;80.77;99900.97;21237312;27;20051;-70
2021/05/01 23:45:55;;;;;;;15.32;10.65;;;;;;;8.96;74.23;99909.97;21246918;27;20108;-71
2021/05/01 23:56:00;;;;;;;14.82;9.88;;;;;;;8.96;69.89;99923.03;21229176;27;20100;-70
